EGVN Airport Information

Runway Information
Runway 07 Length 10007 ft width 184 ft Elevation 284 ft Threshold N/A Heading 74
Runway 25 Length 10007 ft Width 184 ft Elevation 249 ft Threshold N/A Heading 254
Airport Frequencies
Type APP Name APP Frequency 127.25 MHZ
Type ATIS Name ATIS Frequency 259 MHZ
Type CAC Name CAC Frequency 124.275 MHZ
Type GND Name GND Frequency 121.725 MHZ
Type MISC Name ZONE Frequency 119 MHZ
Type OPS Name OPS Frequency 130.075 MHZ
Type RDR Name DIR Frequency 133.755 MHZ
Type TWR Name TWR Frequency 123.72 MHZ
Type APP Name Frequency 297.8 MHZ
Type APP Name Frequency 362.3 MHZ
Type GRN Name Frequency 240.55 MHZ
Airport Navaids
Type NDB Name Brize Norton Frequency 386 KHZ
Type TACAN Name Brize Norton Frequency 111900 KHZ
Airport Weather Information & NOTAM
ADDS - METARS form results

(1743 UTC 05 February 2023)
Data provider http://aviationweather.gov/metar/data/
 
METAR text: EGVN 051720Z 00000KT CAVOK 04/00 Q1045 NOSIG RMK BLU BLU
Conditions at: EGVN (BRIZE NORTON RAF, GB) observed 1720 UTC 05 February 2023
Temperature: 4.0°C (39°F)
Dewpoint: 0.0°C (32°F) [RH = 75%]
Pressure (altimeter): 30.86 inches Hg (1045.0 mb)
Winds: calm
Visibility: 6 or more miles (10+ km)
Ceiling: ceiling and visibility are OK
Clouds: unknown
Weather: no significant weather observed at this time

METAR text: EGVN 051650Z 18001KT CAVOK 05/00 Q1045 NOSIG RMK BLU BLU
Conditions at: EGVN (BRIZE NORTON RAF, GB) observed 1650 UTC 05 February 2023
Temperature: 5.0°C (41°F)
Dewpoint: 0.0°C (32°F) [RH = 70%]
Pressure (altimeter): 30.86 inches Hg (1045.0 mb)
Winds: from the S (180 degrees) at 1 MPH (1 knots; 0.5 m/s)
Visibility: 6 or more miles (10+ km)
Ceiling: ceiling and visibility are OK
Clouds: unknown
Weather: no significant weather observed at this time

Forecast for: EGVN (BRIZE NORTON RAF, GB)
Text: TAF EGVN 051640Z 0518/0618 VRB04KT CAVOK
Forecast period: 1800 UTC 05 February 2023 to 1800 UTC 06 February 2023
Forecast type: FROM: standard forecast or significant change
Winds: variable direction winds at 5 MPH (4 knots; 2.1 m/s)
Visibility: 6 or more miles (10+ km)
Ceiling: unknown
Clouds: missing
Weather: NSW  (no significant weather)
Text: PROB30 0522/0602 5000 BR
Forecast period: 2200 UTC 05 February 2023 to 0200 UTC 06 February 2023
Forecast type: PROBABLE: 30 percent likelihood of the following during this time
Visibility: 3 miles (5 km)
Ceiling: unknown
Clouds: missing
Weather: BR  (mist)
Text: PROB40 0602/0611 4000 BR
Forecast period: 0200 to 1100 UTC 06 February 2023
Forecast type: PROBABLE: 40 percent likelihood of the following during this time
Visibility: 2.49 miles (4.01 km)
Ceiling: unknown
Clouds: missing
Weather: BR  (mist)
Text: PROB30 0603/0610 1500 BR MIFG
Forecast period: 0300 to 1000 UTC 06 February 2023
Forecast type: PROBABLE: 30 percent likelihood of the following during this time
Visibility: 0.93 miles (1.50 km)
Ceiling: unknown
Clouds: missing
Weather: BR MIFG  (mist, shallow fog)